Warning: Javascript must be enabled to use all the features on this page!


Page Loading - Please Wait...

* We've detected you're using a mobile device. Find our Next Generation Station Page here.
Click to hideNews Bulletins

Peak Streamflow for the Nation

USGS 16304200 Kaluanui Stream nr Punaluu, Oahu, HI

Honolulu County, Hawaii
Hydrologic Unit Code 20060000
Latitude  21°35'10.0", Longitude 157°54'29.0" NAD83
Drainage area 1.09  square miles
Gage datum 110 feet above LMSL
Output formats
Table
Graph
Tab-separated file
peakfq (watstore) format
Reselect output format
Water
Year
Date Gage
Height
(feet)
Stream-
flow
(cfs)
1967 1967-08-09 9.29 1,260
1968 1968-03-13 8.85 915
1969 1969-02-01 10.00 2,010
1970 1969-12-24 8.78 867
1971 1971-01-16 9.57 1,530
1972 1972-04-17 9.44 1,400
1973 1972-10-03 9.04 489
1974 1974-07-17 10.84 1,640
1975 1974-11-17 8.62 562
1976 1976-04-29 7.63 278
1977 1977-05-09 8.53 530
1978 1978-06-28 9.01 704
1979 1978-10-31 9.60 970
1980 1979-12-25 9.05 720
1981 1981-05-08 8.29 457
1982 1982-01-06 11.90 2,390
1983 1982-10-27 8.24 442
1984 1984-04-19 7.32 214
1985 1985-02-14 9.84 1,090
1986 1985-10-19 9.80 1,070
1987 1986-11-10 9.43 885
1988 1987-12-31 10.40 1,380
1989 1989-04-04 11.26 1,930
1990 1990-03-06 7.57 264
1991 1991-03-19 9.91 1,120
1992 1991-10-16 10.06 1,200
1993 1992-11-26 8.27 451
1994 1994-09-18 10.45 1,410
1995 1994-10-16 7.94 355
1996 1996-01 10.65Bd 1,530Bd
1997 1996-10-19 7.99 367
1998 1997-11-01 7.48 266
1999 1999-01-22 7.54 279
2000 2000-08-20 7.04 179
2001 2000-10-30 8.40 511
2002 2002-05-06 9.20 808
2003 2003-07-26 8.66 612
2004 2003-11-29 8.54 572
2005 2004-10-26 9.26 832
2006 2006-03-08 10.88 1,600
2007 2007-01-07 10.06 1,660
2008 2007-11-04 10.00 1,640
2009 2008-12-11 13.13 3,100
2010 2009-11-13 11.26 1,820
2011 2011-06-04 12.12 2,360
2012 2012-03-09 9.44 1,300
2013 2013-01-27 9.52 1,330
2014 2014-07-20 11.29 2,350
2015 2015-08-26 8.83 1,030
2016 2015-11-23 9.68 1,410
2017 2016-12-02 9.43 1,290
2018 2018-02-18 9.34 1,250
2019 2018-12-28 10.79 2,030
2020 2019-10-19 8.91 1,060
2021 2021-03-09 11.80 2,710
?
  Peak Gage-Height Qualification Codes.
?
  Peak Streamflow Qualification Codes.